<?xml version="1.0" encoding="UTF-8" ?>
<gpx version="1.1" xmlns:xsi="http://www.w3.org/2001/XMLSchema-instance" 
    xmlns="http://www.topografix.com/GPX/1/1" 
    xsi:schemaLocation="http://www.topografix.com/GPX/1/1 http://www.topografix.com/GPX/1/1/gpx.xsd" 
    creator="Openrunner - https://www.openrunner.com" >	<trk>
						<name>5363193-B-inscriptions 2</name>
						<trkseg>
					<trkpt lat="48.452770" lon="2.743570">
						<ele>100</ele>
						<time>2021-02-16T17:44:22Z</time>
					</trkpt>
					<trkpt lat="48.451690" lon="2.742620">
						<ele>116</ele>
						<time>2021-02-16T17:47:09Z</time>
					</trkpt>
					<trkpt lat="48.451360" lon="2.742040">
						<ele>115</ele>
						<time>2021-02-16T17:48:16Z</time>
					</trkpt>
					<trkpt lat="48.451260" lon="2.741560">
						<ele>113</ele>
						<time>2021-02-16T17:49:01Z</time>
					</trkpt>
					<trkpt lat="48.451180" lon="2.740960">
						<ele>108</ele>
						<time>2021-02-16T17:49:55Z</time>
					</trkpt>
					<trkpt lat="48.450020" lon="2.739760">
						<ele>103</ele>
						<time>2021-02-16T17:53:03Z</time>
					</trkpt>
					<trkpt lat="48.448630" lon="2.742300">
						<ele>103</ele>
						<time>2021-02-16T17:57:54Z</time>
					</trkpt>
					<trkpt lat="48.446240" lon="2.741950">
						<ele>97</ele>
						<time>2021-02-16T18:03:15Z</time>
					</trkpt>
					<trkpt lat="48.446170" lon="2.744030">
						<ele>100</ele>
						<time>2021-02-16T18:06:19Z</time>
					</trkpt>
					<trkpt lat="48.442480" lon="2.742670">
						<ele>99</ele>
						<time>2021-02-16T18:14:46Z</time>
					</trkpt>
					<trkpt lat="48.438940" lon="2.737590">
						<ele>93</ele>
						<time>2021-02-16T18:25:38Z</time>
					</trkpt>
					<trkpt lat="48.436870" lon="2.738140">
						<ele>89</ele>
						<time>2021-02-16T18:30:19Z</time>
					</trkpt>
					<trkpt lat="48.436460" lon="2.738710">
						<ele>90</ele>
						<time>2021-02-16T18:31:33Z</time>
					</trkpt>
					<trkpt lat="48.435220" lon="2.738800">
						<ele>92</ele>
						<time>2021-02-16T18:34:19Z</time>
					</trkpt>
					<trkpt lat="48.434910" lon="2.738500">
						<ele>91</ele>
						<time>2021-02-16T18:35:08Z</time>
					</trkpt>
					<trkpt lat="48.434360" lon="2.738670">
						<ele>93</ele>
						<time>2021-02-16T18:36:23Z</time>
					</trkpt>
					<trkpt lat="48.434710" lon="2.737850">
						<ele>92</ele>
						<time>2021-02-16T18:37:49Z</time>
					</trkpt>
					<trkpt lat="48.434030" lon="2.737590">
						<ele>96</ele>
						<time>2021-02-16T18:39:23Z</time>
					</trkpt>
					<trkpt lat="48.434090" lon="2.737290">
						<ele>97</ele>
						<time>2021-02-16T18:39:51Z</time>
					</trkpt>
					<trkpt lat="48.434090" lon="2.737260">
						<ele>97</ele>
						<time>2021-02-16T18:39:53Z</time>
					</trkpt>
					<trkpt lat="48.433740" lon="2.735970">
						<ele>99</ele>
						<time>2021-02-16T18:41:57Z</time>
					</trkpt>
					<trkpt lat="48.432980" lon="2.735780">
						<ele>99</ele>
						<time>2021-02-16T18:43:40Z</time>
					</trkpt>
					<trkpt lat="48.432550" lon="2.735250">
						<ele>101</ele>
						<time>2021-02-16T18:44:54Z</time>
					</trkpt>
					<trkpt lat="48.432740" lon="2.734950">
						<ele>101</ele>
						<time>2021-02-16T18:45:30Z</time>
					</trkpt>
					<trkpt lat="48.432800" lon="2.734330">
						<ele>104</ele>
						<time>2021-02-16T18:46:26Z</time>
					</trkpt>
					<trkpt lat="48.432630" lon="2.733830">
						<ele>106</ele>
						<time>2021-02-16T18:47:16Z</time>
					</trkpt>
					<trkpt lat="48.432550" lon="2.732980">
						<ele>108</ele>
						<time>2021-02-16T18:48:32Z</time>
					</trkpt>
					<trkpt lat="48.432530" lon="2.732980">
						<ele>107</ele>
						<time>2021-02-16T18:48:34Z</time>
					</trkpt>
					<trkpt lat="48.433010" lon="2.732780">
						<ele>109</ele>
						<time>2021-02-16T18:49:41Z</time>
					</trkpt>
					<trkpt lat="48.433200" lon="2.732260">
						<ele>112</ele>
						<time>2021-02-16T18:50:33Z</time>
					</trkpt>
					<trkpt lat="48.432880" lon="2.731330">
						<ele>112</ele>
						<time>2021-02-16T18:52:06Z</time>
					</trkpt>
					<trkpt lat="48.432880" lon="2.730510">
						<ele>113</ele>
						<time>2021-02-16T18:53:19Z</time>
					</trkpt>
					<trkpt lat="48.433330" lon="2.730180">
						<ele>115</ele>
						<time>2021-02-16T18:54:25Z</time>
					</trkpt>
					<trkpt lat="48.433520" lon="2.729060">
						<ele>114</ele>
						<time>2021-02-16T18:56:08Z</time>
					</trkpt>
					<trkpt lat="48.433680" lon="2.728340">
						<ele>117</ele>
						<time>2021-02-16T18:57:15Z</time>
					</trkpt>
					<trkpt lat="48.433790" lon="2.726830">
						<ele>122</ele>
						<time>2021-02-16T18:59:30Z</time>
					</trkpt>
					<trkpt lat="48.433890" lon="2.726560">
						<ele>124</ele>
						<time>2021-02-16T18:59:57Z</time>
					</trkpt>
					<trkpt lat="48.433990" lon="2.726360">
						<ele>125</ele>
						<time>2021-02-16T19:00:19Z</time>
					</trkpt>
					<trkpt lat="48.433970" lon="2.726040">
						<ele>126</ele>
						<time>2021-02-16T19:00:48Z</time>
					</trkpt>
					<trkpt lat="48.433850" lon="2.725790">
						<ele>126</ele>
						<time>2021-02-16T19:01:15Z</time>
					</trkpt>
					<trkpt lat="48.433810" lon="2.725330">
						<ele>127</ele>
						<time>2021-02-16T19:01:56Z</time>
					</trkpt>
					<trkpt lat="48.433760" lon="2.724730">
						<ele>127</ele>
						<time>2021-02-16T19:02:50Z</time>
					</trkpt>
					<trkpt lat="48.433810" lon="2.724250">
						<ele>128</ele>
						<time>2021-02-16T19:03:33Z</time>
					</trkpt>
					<trkpt lat="48.433480" lon="2.724100">
						<ele>126</ele>
						<time>2021-02-16T19:04:19Z</time>
					</trkpt>
					<trkpt lat="48.433270" lon="2.723820">
						<ele>126</ele>
						<time>2021-02-16T19:04:56Z</time>
					</trkpt>
					<trkpt lat="48.431930" lon="2.725410">
						<ele>119</ele>
						<time>2021-02-16T19:08:44Z</time>
					</trkpt>
					<trkpt lat="48.431700" lon="2.723580">
						<ele>130</ele>
						<time>2021-02-16T19:11:28Z</time>
					</trkpt>
					<trkpt lat="48.431410" lon="2.723670">
						<ele>132</ele>
						<time>2021-02-16T19:12:08Z</time>
					</trkpt>
					<trkpt lat="48.430670" lon="2.724340">
						<ele>132</ele>
						<time>2021-02-16T19:14:03Z</time>
					</trkpt>
					<trkpt lat="48.429780" lon="2.724060">
						<ele>133</ele>
						<time>2021-02-16T19:16:04Z</time>
					</trkpt>
					<trkpt lat="48.429170" lon="2.721430">
						<ele>141</ele>
						<time>2021-02-16T19:20:11Z</time>
					</trkpt>
					<trkpt lat="48.428520" lon="2.718560">
						<ele>149</ele>
						<time>2021-02-16T19:24:40Z</time>
					</trkpt>
					<trkpt lat="48.427790" lon="2.718610">
						<ele>149</ele>
						<time>2021-02-16T19:26:17Z</time>
					</trkpt>
					<trkpt lat="48.428040" lon="2.718740">
						<ele>148</ele>
						<time>2021-02-16T19:26:53Z</time>
					</trkpt>
					<trkpt lat="48.427880" lon="2.718780">
						<ele>148</ele>
						<time>2021-02-16T19:27:14Z</time>
					</trkpt>
					<trkpt lat="48.428100" lon="2.719180">
						<ele>145</ele>
						<time>2021-02-16T19:28:00Z</time>
					</trkpt>
					<trkpt lat="48.428250" lon="2.720070">
						<ele>138</ele>
						<time>2021-02-16T19:29:21Z</time>
					</trkpt>
					<trkpt lat="48.428160" lon="2.721140">
						<ele>133</ele>
						<time>2021-02-16T19:30:57Z</time>
					</trkpt>
					<trkpt lat="48.428410" lon="2.730670">
						<ele>102</ele>
						<time>2021-02-16T19:45:02Z</time>
					</trkpt>
					<trkpt lat="48.422830" lon="2.728500">
						<ele>97</ele>
						<time>2021-02-16T19:57:51Z</time>
					</trkpt>
					<trkpt lat="48.422250" lon="2.730210">
						<ele>88</ele>
						<time>2021-02-16T20:00:41Z</time>
					</trkpt>
					<trkpt lat="48.422460" lon="2.730430">
						<ele>89</ele>
						<time>2021-02-16T20:01:15Z</time>
					</trkpt>
					<trkpt lat="48.422390" lon="2.730970">
						<ele>86</ele>
						<time>2021-02-16T20:02:03Z</time>
					</trkpt>
					<trkpt lat="48.422430" lon="2.731370">
						<ele>84</ele>
						<time>2021-02-16T20:02:39Z</time>
					</trkpt>
					<trkpt lat="48.419510" lon="2.728210">
						<ele>88</ele>
						<time>2021-02-16T20:10:39Z</time>
					</trkpt>
					<trkpt lat="48.421170" lon="2.725750">
						<ele>107</ele>
						<time>2021-02-16T20:15:50Z</time>
					</trkpt>
					<trkpt lat="48.421380" lon="2.724290">
						<ele>108</ele>
						<time>2021-02-16T20:18:02Z</time>
					</trkpt>
					<trkpt lat="48.421530" lon="2.722700">
						<ele>112</ele>
						<time>2021-02-16T20:20:24Z</time>
					</trkpt>
					<trkpt lat="48.423270" lon="2.722750">
						<ele>107</ele>
						<time>2021-02-16T20:24:17Z</time>
					</trkpt>
					<trkpt lat="48.424100" lon="2.723050">
						<ele>110</ele>
						<time>2021-02-16T20:26:10Z</time>
					</trkpt>
					<trkpt lat="48.424850" lon="2.723200">
						<ele>113</ele>
						<time>2021-02-16T20:27:51Z</time>
					</trkpt>
					<trkpt lat="48.425190" lon="2.722740">
						<ele>119</ele>
						<time>2021-02-16T20:28:52Z</time>
					</trkpt>
					<trkpt lat="48.425510" lon="2.721810">
						<ele>128</ele>
						<time>2021-02-16T20:30:25Z</time>
					</trkpt>
					<trkpt lat="48.425890" lon="2.721450">
						<ele>131</ele>
						<time>2021-02-16T20:31:25Z</time>
					</trkpt>
					<trkpt lat="48.426300" lon="2.721090">
						<ele>136</ele>
						<time>2021-02-16T20:32:28Z</time>
					</trkpt>
					<trkpt lat="48.426720" lon="2.720730">
						<ele>141</ele>
						<time>2021-02-16T20:33:33Z</time>
					</trkpt>
					<trkpt lat="48.426870" lon="2.719740">
						<ele>148</ele>
						<time>2021-02-16T20:35:03Z</time>
					</trkpt>
					<trkpt lat="48.426580" lon="2.719710">
						<ele>149</ele>
						<time>2021-02-16T20:35:42Z</time>
					</trkpt>
					<trkpt lat="48.426230" lon="2.720820">
						<ele>139</ele>
						<time>2021-02-16T20:37:30Z</time>
					</trkpt>
					<trkpt lat="48.425870" lon="2.720810">
						<ele>138</ele>
						<time>2021-02-16T20:38:18Z</time>
					</trkpt>
					<trkpt lat="48.425550" lon="2.720900">
						<ele>138</ele>
						<time>2021-02-16T20:39:02Z</time>
					</trkpt>
					<trkpt lat="48.425200" lon="2.720940">
						<ele>138</ele>
						<time>2021-02-16T20:39:49Z</time>
					</trkpt>
					<trkpt lat="48.424860" lon="2.721060">
						<ele>136</ele>
						<time>2021-02-16T20:40:35Z</time>
					</trkpt>
					<trkpt lat="48.424420" lon="2.719490">
						<ele>145</ele>
						<time>2021-02-16T20:43:06Z</time>
					</trkpt>
					<trkpt lat="48.424000" lon="2.719350">
						<ele>144</ele>
						<time>2021-02-16T20:44:04Z</time>
					</trkpt>
					<trkpt lat="48.423730" lon="2.719150">
						<ele>144</ele>
						<time>2021-02-16T20:44:44Z</time>
					</trkpt>
					<trkpt lat="48.423550" lon="2.719180">
						<ele>142</ele>
						<time>2021-02-16T20:45:08Z</time>
					</trkpt>
					<trkpt lat="48.423410" lon="2.718870">
						<ele>144</ele>
						<time>2021-02-16T20:45:41Z</time>
					</trkpt>
					<trkpt lat="48.423200" lon="2.718770">
						<ele>144</ele>
						<time>2021-02-16T20:46:11Z</time>
					</trkpt>
					<trkpt lat="48.422690" lon="2.718710">
						<ele>145</ele>
						<time>2021-02-16T20:47:19Z</time>
					</trkpt>
					<trkpt lat="48.422640" lon="2.718980">
						<ele>144</ele>
						<time>2021-02-16T20:47:44Z</time>
					</trkpt>
					<trkpt lat="48.422430" lon="2.719030">
						<ele>145</ele>
						<time>2021-02-16T20:48:12Z</time>
					</trkpt>
					<trkpt lat="48.422110" lon="2.718820">
						<ele>146</ele>
						<time>2021-02-16T20:48:59Z</time>
					</trkpt>
					<trkpt lat="48.421660" lon="2.718510">
						<ele>150</ele>
						<time>2021-02-16T20:50:05Z</time>
					</trkpt>
					<trkpt lat="48.421490" lon="2.718500">
						<ele>149</ele>
						<time>2021-02-16T20:50:27Z</time>
					</trkpt>
					<trkpt lat="48.421450" lon="2.718760">
						<ele>148</ele>
						<time>2021-02-16T20:50:51Z</time>
					</trkpt>
					<trkpt lat="48.421520" lon="2.719030">
						<ele>147</ele>
						<time>2021-02-16T20:51:17Z</time>
					</trkpt>
					<trkpt lat="48.421690" lon="2.719050">
						<ele>147</ele>
						<time>2021-02-16T20:51:39Z</time>
					</trkpt>
					<trkpt lat="48.421840" lon="2.718950">
						<ele>147</ele>
						<time>2021-02-16T20:52:01Z</time>
					</trkpt>
					<trkpt lat="48.421820" lon="2.719180">
						<ele>146</ele>
						<time>2021-02-16T20:52:22Z</time>
					</trkpt>
					<trkpt lat="48.421890" lon="2.719460">
						<ele>143</ele>
						<time>2021-02-16T20:52:48Z</time>
					</trkpt>
					<trkpt lat="48.422000" lon="2.719560">
						<ele>141</ele>
						<time>2021-02-16T20:53:05Z</time>
					</trkpt>
					<trkpt lat="48.421980" lon="2.719720">
						<ele>140</ele>
						<time>2021-02-16T20:53:20Z</time>
					</trkpt>
					<trkpt lat="48.422200" lon="2.719990">
						<ele>135</ele>
						<time>2021-02-16T20:53:58Z</time>
					</trkpt>
					<trkpt lat="48.421860" lon="2.720170">
						<ele>135</ele>
						<time>2021-02-16T20:54:46Z</time>
					</trkpt>
					<trkpt lat="48.421530" lon="2.719760">
						<ele>141</ele>
						<time>2021-02-16T20:55:43Z</time>
					</trkpt>
					<trkpt lat="48.421110" lon="2.719400">
						<ele>144</ele>
						<time>2021-02-16T20:56:47Z</time>
					</trkpt>
					<trkpt lat="48.421190" lon="2.719580">
						<ele>143</ele>
						<time>2021-02-16T20:57:07Z</time>
					</trkpt>
					<trkpt lat="48.420760" lon="2.720600">
						<ele>138</ele>
						<time>2021-02-16T20:58:54Z</time>
					</trkpt>
					<trkpt lat="48.420370" lon="2.721160">
						<ele>135</ele>
						<time>2021-02-16T21:00:05Z</time>
					</trkpt>
					<trkpt lat="48.420170" lon="2.721570">
						<ele>137</ele>
						<time>2021-02-16T21:00:51Z</time>
					</trkpt>
					<trkpt lat="48.420140" lon="2.722000">
						<ele>137</ele>
						<time>2021-02-16T21:01:29Z</time>
					</trkpt>
					<trkpt lat="48.420050" lon="2.722390">
						<ele>138</ele>
						<time>2021-02-16T21:02:05Z</time>
					</trkpt>
					<trkpt lat="48.420110" lon="2.723200">
						<ele>132</ele>
						<time>2021-02-16T21:03:18Z</time>
					</trkpt>
					<trkpt lat="48.419910" lon="2.723750">
						<ele>130</ele>
						<time>2021-02-16T21:04:13Z</time>
					</trkpt>
					<trkpt lat="48.419910" lon="2.724320">
						<ele>128</ele>
						<time>2021-02-16T21:05:04Z</time>
					</trkpt>
					<trkpt lat="48.419650" lon="2.724790">
						<ele>125</ele>
						<time>2021-02-16T21:05:58Z</time>
					</trkpt>
					<trkpt lat="48.419460" lon="2.724030">
						<ele>126</ele>
						<time>2021-02-16T21:07:10Z</time>
					</trkpt>
					<trkpt lat="48.419790" lon="2.723230">
						<ele>132</ele>
						<time>2021-02-16T21:08:33Z</time>
					</trkpt>
					<trkpt lat="48.419870" lon="2.722740">
						<ele>136</ele>
						<time>2021-02-16T21:09:18Z</time>
					</trkpt>
					<trkpt lat="48.419790" lon="2.722130">
						<ele>137</ele>
						<time>2021-02-16T21:10:13Z</time>
					</trkpt>
					<trkpt lat="48.419540" lon="2.722170">
						<ele>134</ele>
						<time>2021-02-16T21:10:46Z</time>
					</trkpt>
					<trkpt lat="48.419440" lon="2.721760">
						<ele>132</ele>
						<time>2021-02-16T21:11:25Z</time>
					</trkpt>
					<trkpt lat="48.419760" lon="2.721710">
						<ele>136</ele>
						<time>2021-02-16T21:12:08Z</time>
					</trkpt>
					<trkpt lat="48.419930" lon="2.721260">
						<ele>136</ele>
						<time>2021-02-16T21:12:54Z</time>
					</trkpt>
					<trkpt lat="48.419960" lon="2.720650">
						<ele>135</ele>
						<time>2021-02-16T21:13:48Z</time>
					</trkpt>
					<trkpt lat="48.420270" lon="2.720350">
						<ele>138</ele>
						<time>2021-02-16T21:14:37Z</time>
					</trkpt>
					<trkpt lat="48.420500" lon="2.719670">
						<ele>142</ele>
						<time>2021-02-16T21:15:45Z</time>
					</trkpt>
					<trkpt lat="48.420530" lon="2.718900">
						<ele>144</ele>
						<time>2021-02-16T21:16:53Z</time>
					</trkpt>
					<trkpt lat="48.420550" lon="2.718470">
						<ele>144</ele>
						<time>2021-02-16T21:17:31Z</time>
					</trkpt>
					<trkpt lat="48.420730" lon="2.718190">
						<ele>146</ele>
						<time>2021-02-16T21:18:06Z</time>
					</trkpt>
					<trkpt lat="48.420870" lon="2.717590">
						<ele>146</ele>
						<time>2021-02-16T21:19:02Z</time>
					</trkpt>
					<trkpt lat="48.421130" lon="2.716490">
						<ele>147</ele>
						<time>2021-02-16T21:20:46Z</time>
					</trkpt>
					<trkpt lat="48.420920" lon="2.715820">
						<ele>147</ele>
						<time>2021-02-16T21:21:51Z</time>
					</trkpt>
					<trkpt lat="48.420330" lon="2.715260">
						<ele>143</ele>
						<time>2021-02-16T21:23:24Z</time>
					</trkpt>
					<trkpt lat="48.420330" lon="2.715230">
						<ele>143</ele>
						<time>2021-02-16T21:23:27Z</time>
					</trkpt>
					<trkpt lat="48.419710" lon="2.715000">
						<ele>134</ele>
						<time>2021-02-16T21:24:52Z</time>
					</trkpt>
					<trkpt lat="48.419710" lon="2.714600">
						<ele>134</ele>
						<time>2021-02-16T21:25:28Z</time>
					</trkpt>
					<trkpt lat="48.420140" lon="2.714600">
						<ele>141</ele>
						<time>2021-02-16T21:26:25Z</time>
					</trkpt>
					<trkpt lat="48.420600" lon="2.714340">
						<ele>144</ele>
						<time>2021-02-16T21:27:30Z</time>
					</trkpt>
					<trkpt lat="48.420550" lon="2.713740">
						<ele>141</ele>
						<time>2021-02-16T21:28:24Z</time>
					</trkpt>
					<trkpt lat="48.420690" lon="2.713200">
						<ele>139</ele>
						<time>2021-02-16T21:29:15Z</time>
					</trkpt>
					<trkpt lat="48.420430" lon="2.713190">
						<ele>135</ele>
						<time>2021-02-16T21:29:50Z</time>
					</trkpt>
					<trkpt lat="48.420570" lon="2.712610">
						<ele>134</ele>
						<time>2021-02-16T21:30:45Z</time>
					</trkpt>
					<trkpt lat="48.419940" lon="2.712720">
						<ele>124</ele>
						<time>2021-02-16T21:32:09Z</time>
					</trkpt>
					<trkpt lat="48.419600" lon="2.712690">
						<ele>119</ele>
						<time>2021-02-16T21:32:55Z</time>
					</trkpt>
					<trkpt lat="48.418830" lon="2.711940">
						<ele>110</ele>
						<time>2021-02-16T21:34:57Z</time>
					</trkpt>
					<trkpt lat="48.419130" lon="2.711790">
						<ele>110</ele>
						<time>2021-02-16T21:35:39Z</time>
					</trkpt>
					<trkpt lat="48.419160" lon="2.711340">
						<ele>110</ele>
						<time>2021-02-16T21:36:19Z</time>
					</trkpt>
					<trkpt lat="48.418530" lon="2.707780">
						<ele>99</ele>
						<time>2021-02-16T21:41:46Z</time>
					</trkpt>
					<trkpt lat="48.419900" lon="2.711060">
						<ele>119</ele>
						<time>2021-02-16T21:47:29Z</time>
					</trkpt>
					<trkpt lat="48.420540" lon="2.711450">
						<ele>130</ele>
						<time>2021-02-16T21:49:01Z</time>
					</trkpt>
					<trkpt lat="48.420880" lon="2.711660">
						<ele>136</ele>
						<time>2021-02-16T21:49:50Z</time>
					</trkpt>
					<trkpt lat="48.420980" lon="2.711900">
						<ele>137</ele>
						<time>2021-02-16T21:50:15Z</time>
					</trkpt>
					<trkpt lat="48.421400" lon="2.711510">
						<ele>137</ele>
						<time>2021-02-16T21:51:21Z</time>
					</trkpt>
					<trkpt lat="48.421540" lon="2.711760">
						<ele>140</ele>
						<time>2021-02-16T21:51:50Z</time>
					</trkpt>
					<trkpt lat="48.421300" lon="2.712160">
						<ele>140</ele>
						<time>2021-02-16T21:52:38Z</time>
					</trkpt>
					<trkpt lat="48.421020" lon="2.712740">
						<ele>140</ele>
						<time>2021-02-16T21:53:41Z</time>
					</trkpt>
					<trkpt lat="48.421060" lon="2.713250">
						<ele>142</ele>
						<time>2021-02-16T21:54:27Z</time>
					</trkpt>
					<trkpt lat="48.421200" lon="2.713360">
						<ele>143</ele>
						<time>2021-02-16T21:54:48Z</time>
					</trkpt>
					<trkpt lat="48.421450" lon="2.713400">
						<ele>145</ele>
						<time>2021-02-16T21:55:21Z</time>
					</trkpt>
					<trkpt lat="48.421990" lon="2.712970">
						<ele>145</ele>
						<time>2021-02-16T21:56:43Z</time>
					</trkpt>
					<trkpt lat="48.422440" lon="2.712790">
						<ele>144</ele>
						<time>2021-02-16T21:57:45Z</time>
					</trkpt>
					<trkpt lat="48.422610" lon="2.712960">
						<ele>145</ele>
						<time>2021-02-16T21:58:12Z</time>
					</trkpt>
					<trkpt lat="48.422560" lon="2.713310">
						<ele>146</ele>
						<time>2021-02-16T21:58:44Z</time>
					</trkpt>
					<trkpt lat="48.422600" lon="2.713590">
						<ele>147</ele>
						<time>2021-02-16T21:59:09Z</time>
					</trkpt>
					<trkpt lat="48.422430" lon="2.714020">
						<ele>148</ele>
						<time>2021-02-16T21:59:54Z</time>
					</trkpt>
					<trkpt lat="48.422260" lon="2.714580">
						<ele>149</ele>
						<time>2021-02-16T22:00:48Z</time>
					</trkpt>
					<trkpt lat="48.421920" lon="2.715330">
						<ele>150</ele>
						<time>2021-02-16T22:02:09Z</time>
					</trkpt>
					<trkpt lat="48.422950" lon="2.715910">
						<ele>151</ele>
						<time>2021-02-16T22:04:35Z</time>
					</trkpt>
					<trkpt lat="48.423910" lon="2.716400">
						<ele>155</ele>
						<time>2021-02-16T22:06:51Z</time>
					</trkpt>
					<trkpt lat="48.424410" lon="2.715490">
						<ele>156</ele>
						<time>2021-02-16T22:08:35Z</time>
					</trkpt>
					<trkpt lat="48.426770" lon="2.711270">
						<ele>158</ele>
						<time>2021-02-16T22:16:44Z</time>
					</trkpt>
					<trkpt lat="48.426470" lon="2.710940">
						<ele>157</ele>
						<time>2021-02-16T22:17:34Z</time>
					</trkpt>
					<trkpt lat="48.426330" lon="2.710840">
						<ele>156</ele>
						<time>2021-02-16T22:17:54Z</time>
					</trkpt>
					<trkpt lat="48.426140" lon="2.711150">
						<ele>156</ele>
						<time>2021-02-16T22:18:32Z</time>
					</trkpt>
					<trkpt lat="48.426260" lon="2.711340">
						<ele>157</ele>
						<time>2021-02-16T22:18:55Z</time>
					</trkpt>
					<trkpt lat="48.426150" lon="2.711350">
						<ele>157</ele>
						<time>2021-02-16T22:19:10Z</time>
					</trkpt>
					<trkpt lat="48.426090" lon="2.710870">
						<ele>155</ele>
						<time>2021-02-16T22:19:53Z</time>
					</trkpt>
					<trkpt lat="48.425880" lon="2.710690">
						<ele>154</ele>
						<time>2021-02-16T22:20:25Z</time>
					</trkpt>
					<trkpt lat="48.425700" lon="2.710750">
						<ele>154</ele>
						<time>2021-02-16T22:20:50Z</time>
					</trkpt>
					<trkpt lat="48.425630" lon="2.710410">
						<ele>153</ele>
						<time>2021-02-16T22:21:21Z</time>
					</trkpt>
					<trkpt lat="48.425510" lon="2.710020">
						<ele>152</ele>
						<time>2021-02-16T22:21:59Z</time>
					</trkpt>
					<trkpt lat="48.425400" lon="2.710200">
						<ele>152</ele>
						<time>2021-02-16T22:22:21Z</time>
					</trkpt>
					<trkpt lat="48.424840" lon="2.709950">
						<ele>149</ele>
						<time>2021-02-16T22:23:39Z</time>
					</trkpt>
					<trkpt lat="48.425050" lon="2.709210">
						<ele>145</ele>
						<time>2021-02-16T22:24:50Z</time>
					</trkpt>
					<trkpt lat="48.424290" lon="2.708310">
						<ele>140</ele>
						<time>2021-02-16T22:26:59Z</time>
					</trkpt>
					<trkpt lat="48.423940" lon="2.708780">
						<ele>141</ele>
						<time>2021-02-16T22:28:02Z</time>
					</trkpt>
					<trkpt lat="48.423190" lon="2.709180">
						<ele>144</ele>
						<time>2021-02-16T22:29:48Z</time>
					</trkpt>
					<trkpt lat="48.423160" lon="2.709180">
						<ele>144</ele>
						<time>2021-02-16T22:29:52Z</time>
					</trkpt>
					<trkpt lat="48.422730" lon="2.708780">
						<ele>145</ele>
						<time>2021-02-16T22:30:59Z</time>
					</trkpt>
					<trkpt lat="48.422030" lon="2.708420">
						<ele>140</ele>
						<time>2021-02-16T22:32:38Z</time>
					</trkpt>
					<trkpt lat="48.421890" lon="2.707790">
						<ele>140</ele>
						<time>2021-02-16T22:33:37Z</time>
					</trkpt>
					<trkpt lat="48.422240" lon="2.707400">
						<ele>145</ele>
						<time>2021-02-16T22:34:35Z</time>
					</trkpt>
					<trkpt lat="48.422160" lon="2.707000">
						<ele>145</ele>
						<time>2021-02-16T22:35:12Z</time>
					</trkpt>
					<trkpt lat="48.421920" lon="2.706770">
						<ele>143</ele>
						<time>2021-02-16T22:35:50Z</time>
					</trkpt>
					<trkpt lat="48.421570" lon="2.706050">
						<ele>141</ele>
						<time>2021-02-16T22:37:09Z</time>
					</trkpt>
					<trkpt lat="48.421430" lon="2.705530">
						<ele>140</ele>
						<time>2021-02-16T22:37:59Z</time>
					</trkpt>
					<trkpt lat="48.421580" lon="2.704750">
						<ele>143</ele>
						<time>2021-02-16T22:39:10Z</time>
					</trkpt>
					<trkpt lat="48.421750" lon="2.704370">
						<ele>143</ele>
						<time>2021-02-16T22:39:51Z</time>
					</trkpt>
					<trkpt lat="48.421990" lon="2.704400">
						<ele>144</ele>
						<time>2021-02-16T22:40:23Z</time>
					</trkpt>
					<trkpt lat="48.422170" lon="2.704130">
						<ele>144</ele>
						<time>2021-02-16T22:40:57Z</time>
					</trkpt>
					<trkpt lat="48.422180" lon="2.703810">
						<ele>142</ele>
						<time>2021-02-16T22:41:25Z</time>
					</trkpt>
					<trkpt lat="48.422130" lon="2.703330">
						<ele>140</ele>
						<time>2021-02-16T22:42:08Z</time>
					</trkpt>
					<trkpt lat="48.421780" lon="2.702740">
						<ele>136</ele>
						<time>2021-02-16T22:43:19Z</time>
					</trkpt>
					<trkpt lat="48.421870" lon="2.702380">
						<ele>135</ele>
						<time>2021-02-16T22:43:53Z</time>
					</trkpt>
					<trkpt lat="48.422040" lon="2.702560">
						<ele>138</ele>
						<time>2021-02-16T22:44:20Z</time>
					</trkpt>
					<trkpt lat="48.422340" lon="2.702530">
						<ele>140</ele>
						<time>2021-02-16T22:45:00Z</time>
					</trkpt>
					<trkpt lat="48.422580" lon="2.702770">
						<ele>142</ele>
						<time>2021-02-16T22:45:39Z</time>
					</trkpt>
					<trkpt lat="48.422830" lon="2.703130">
						<ele>142</ele>
						<time>2021-02-16T22:46:25Z</time>
					</trkpt>
					<trkpt lat="48.422780" lon="2.703500">
						<ele>143</ele>
						<time>2021-02-16T22:46:59Z</time>
					</trkpt>
					<trkpt lat="48.423130" lon="2.703930">
						<ele>142</ele>
						<time>2021-02-16T22:47:59Z</time>
					</trkpt>
					<trkpt lat="48.423070" lon="2.703660">
						<ele>142</ele>
						<time>2021-02-16T22:48:24Z</time>
					</trkpt>
					<trkpt lat="48.423030" lon="2.703040">
						<ele>141</ele>
						<time>2021-02-16T22:49:19Z</time>
					</trkpt>
					<trkpt lat="48.423120" lon="2.702990">
						<ele>141</ele>
						<time>2021-02-16T22:49:32Z</time>
					</trkpt>
					<trkpt lat="48.423310" lon="2.702240">
						<ele>141</ele>
						<time>2021-02-16T22:50:43Z</time>
					</trkpt>
					<trkpt lat="48.423200" lon="2.701980">
						<ele>140</ele>
						<time>2021-02-16T22:51:10Z</time>
					</trkpt>
					<trkpt lat="48.423210" lon="2.701720">
						<ele>139</ele>
						<time>2021-02-16T22:51:33Z</time>
					</trkpt>
					<trkpt lat="48.423090" lon="2.701460">
						<ele>137</ele>
						<time>2021-02-16T22:52:01Z</time>
					</trkpt>
					<trkpt lat="48.423280" lon="2.701480">
						<ele>139</ele>
						<time>2021-02-16T22:52:27Z</time>
					</trkpt>
					<trkpt lat="48.423330" lon="2.701090">
						<ele>139</ele>
						<time>2021-02-16T22:53:02Z</time>
					</trkpt>
					<trkpt lat="48.423350" lon="2.700650">
						<ele>139</ele>
						<time>2021-02-16T22:53:41Z</time>
					</trkpt>
					<trkpt lat="48.422950" lon="2.700750">
						<ele>133</ele>
						<time>2021-02-16T22:54:35Z</time>
					</trkpt>
					<trkpt lat="48.422810" lon="2.700550">
						<ele>130</ele>
						<time>2021-02-16T22:55:01Z</time>
					</trkpt>
					<trkpt lat="48.423020" lon="2.700160">
						<ele>134</ele>
						<time>2021-02-16T22:55:45Z</time>
					</trkpt>
					<trkpt lat="48.423240" lon="2.699940">
						<ele>138</ele>
						<time>2021-02-16T22:56:21Z</time>
					</trkpt>
					<trkpt lat="48.423370" lon="2.699750">
						<ele>141</ele>
						<time>2021-02-16T22:56:45Z</time>
					</trkpt>
					<trkpt lat="48.423070" lon="2.699510">
						<ele>136</ele>
						<time>2021-02-16T22:57:30Z</time>
					</trkpt>
					<trkpt lat="48.422720" lon="2.699390">
						<ele>131</ele>
						<time>2021-02-16T22:58:18Z</time>
					</trkpt>
					<trkpt lat="48.422650" lon="2.699250">
						<ele>130</ele>
						<time>2021-02-16T22:58:34Z</time>
					</trkpt>
					<trkpt lat="48.422900" lon="2.698950">
						<ele>134</ele>
						<time>2021-02-16T22:59:16Z</time>
					</trkpt>
					<trkpt lat="48.422870" lon="2.698730">
						<ele>133</ele>
						<time>2021-02-16T22:59:36Z</time>
					</trkpt>
					<trkpt lat="48.423050" lon="2.698640">
						<ele>135</ele>
						<time>2021-02-16T23:00:01Z</time>
					</trkpt>
					<trkpt lat="48.424570" lon="2.698490">
						<ele>143</ele>
						<time>2021-02-16T23:03:25Z</time>
					</trkpt>
					<trkpt lat="48.424690" lon="2.697510">
						<ele>143</ele>
						<time>2021-02-16T23:04:53Z</time>
					</trkpt>
					<trkpt lat="48.424720" lon="2.694250">
						<ele>143</ele>
						<time>2021-02-16T23:09:42Z</time>
					</trkpt>
					<trkpt lat="48.423110" lon="2.693000">
						<ele>137</ele>
						<time>2021-02-16T23:13:43Z</time>
					</trkpt>
					<trkpt lat="48.422930" lon="2.692960">
						<ele>136</ele>
						<time>2021-02-16T23:14:08Z</time>
					</trkpt>
					<trkpt lat="48.422720" lon="2.692510">
						<ele>132</ele>
						<time>2021-02-16T23:14:56Z</time>
					</trkpt>
					<trkpt lat="48.422500" lon="2.692450">
						<ele>129</ele>
						<time>2021-02-16T23:15:26Z</time>
					</trkpt>
					<trkpt lat="48.422310" lon="2.692210">
						<ele>125</ele>
						<time>2021-02-16T23:15:59Z</time>
					</trkpt>
					<trkpt lat="48.422300" lon="2.691680">
						<ele>119</ele>
						<time>2021-02-16T23:16:46Z</time>
					</trkpt>
					<trkpt lat="48.422250" lon="2.691200">
						<ele>118</ele>
						<time>2021-02-16T23:17:29Z</time>
					</trkpt>
					<trkpt lat="48.421920" lon="2.690590">
						<ele>114</ele>
						<time>2021-02-16T23:18:39Z</time>
					</trkpt>
					<trkpt lat="48.421240" lon="2.689240">
						<ele>109</ele>
						<time>2021-02-16T23:21:09Z</time>
					</trkpt>
					<trkpt lat="48.421760" lon="2.688510">
						<ele>116</ele>
						<time>2021-02-16T23:22:44Z</time>
					</trkpt>
					<trkpt lat="48.422240" lon="2.687530">
						<ele>119</ele>
						<time>2021-02-16T23:24:32Z</time>
					</trkpt>
					<trkpt lat="48.422700" lon="2.686310">
						<ele>124</ele>
						<time>2021-02-16T23:26:36Z</time>
					</trkpt>
					<trkpt lat="48.423620" lon="2.685820">
						<ele>133</ele>
						<time>2021-02-16T23:28:46Z</time>
					</trkpt>
					<trkpt lat="48.424450" lon="2.685360">
						<ele>142</ele>
						<time>2021-02-16T23:30:44Z</time>
					</trkpt>
					<trkpt lat="48.425720" lon="2.685590">
						<ele>146</ele>
						<time>2021-02-16T23:33:35Z</time>
					</trkpt>
					<trkpt lat="48.427640" lon="2.686260">
						<ele>145</ele>
						<time>2021-02-16T23:37:58Z</time>
					</trkpt>
					<trkpt lat="48.428120" lon="2.686320">
						<ele>142</ele>
						<time>2021-02-16T23:39:02Z</time>
					</trkpt>
					<trkpt lat="48.428570" lon="2.686340">
						<ele>138</ele>
						<time>2021-02-16T23:40:02Z</time>
					</trkpt>
					<trkpt lat="48.428790" lon="2.686680">
						<ele>133</ele>
						<time>2021-02-16T23:40:44Z</time>
					</trkpt>
					<trkpt lat="48.429070" lon="2.686790">
						<ele>128</ele>
						<time>2021-02-16T23:41:23Z</time>
					</trkpt>
					<trkpt lat="48.430960" lon="2.686520">
						<ele>105</ele>
						<time>2021-02-16T23:45:36Z</time>
					</trkpt>
					<trkpt lat="48.431250" lon="2.685850">
						<ele>102</ele>
						<time>2021-02-16T23:46:47Z</time>
					</trkpt>
					<trkpt lat="48.431480" lon="2.685470">
						<ele>101</ele>
						<time>2021-02-16T23:47:33Z</time>
					</trkpt>
					<trkpt lat="48.431630" lon="2.684950">
						<ele>102</ele>
						<time>2021-02-16T23:48:23Z</time>
					</trkpt>
					<trkpt lat="48.431850" lon="2.684210">
						<ele>105</ele>
						<time>2021-02-16T23:49:35Z</time>
					</trkpt>
					<trkpt lat="48.432240" lon="2.683680">
						<ele>100</ele>
						<time>2021-02-16T23:50:45Z</time>
					</trkpt>
					<trkpt lat="48.432040" lon="2.684550">
						<ele>98</ele>
						<time>2021-02-16T23:52:06Z</time>
					</trkpt>
					<trkpt lat="48.433140" lon="2.680070">
						<ele>97</ele>
						<time>2021-02-16T23:59:09Z</time>
					</trkpt>
					<trkpt lat="48.433900" lon="2.677450">
						<ele>93</ele>
						<time>2021-02-17T00:03:22Z</time>
					</trkpt>
					<trkpt lat="48.434810" lon="2.676240">
						<ele>93</ele>
						<time>2021-02-17T00:06:04Z</time>
					</trkpt>
					<trkpt lat="48.435140" lon="2.675290">
						<ele>96</ele>
						<time>2021-02-17T00:07:39Z</time>
					</trkpt>
					<trkpt lat="48.435110" lon="2.673370">
						<ele>101</ele>
						<time>2021-02-17T00:10:29Z</time>
					</trkpt>
					<trkpt lat="48.435590" lon="2.670980">
						<ele>109</ele>
						<time>2021-02-17T00:14:10Z</time>
					</trkpt>
					<trkpt lat="48.438000" lon="2.670960">
						<ele>111</ele>
						<time>2021-02-17T00:19:32Z</time>
					</trkpt>
					<trkpt lat="48.439250" lon="2.676400">
						<ele>101</ele>
						<time>2021-02-17T00:28:02Z</time>
					</trkpt>
					<trkpt lat="48.439550" lon="2.676590">
						<ele>103</ele>
						<time>2021-02-17T00:28:45Z</time>
					</trkpt>
					<trkpt lat="48.439800" lon="2.676840">
						<ele>106</ele>
						<time>2021-02-17T00:29:25Z</time>
					</trkpt>
					<trkpt lat="48.439640" lon="2.676960">
						<ele>104</ele>
						<time>2021-02-17T00:29:49Z</time>
					</trkpt>
					<trkpt lat="48.439480" lon="2.677510">
						<ele>104</ele>
						<time>2021-02-17T00:30:42Z</time>
					</trkpt>
					<trkpt lat="48.439590" lon="2.677640">
						<ele>105</ele>
						<time>2021-02-17T00:31:01Z</time>
					</trkpt>
					<trkpt lat="48.439660" lon="2.677980">
						<ele>106</ele>
						<time>2021-02-17T00:31:32Z</time>
					</trkpt>
					<trkpt lat="48.439770" lon="2.678070">
						<ele>107</ele>
						<time>2021-02-17T00:31:49Z</time>
					</trkpt>
					<trkpt lat="48.440180" lon="2.678510">
						<ele>110</ele>
						<time>2021-02-17T00:32:56Z</time>
					</trkpt>
					<trkpt lat="48.440130" lon="2.679500">
						<ele>107</ele>
						<time>2021-02-17T00:34:24Z</time>
					</trkpt>
					<trkpt lat="48.440630" lon="2.680100">
						<ele>107</ele>
						<time>2021-02-17T00:35:49Z</time>
					</trkpt>
					<trkpt lat="48.439770" lon="2.681140">
						<ele>101</ele>
						<time>2021-02-17T00:38:17Z</time>
					</trkpt>
					<trkpt lat="48.439860" lon="2.682570">
						<ele>102</ele>
						<time>2021-02-17T00:40:24Z</time>
					</trkpt>
					<trkpt lat="48.439640" lon="2.683610">
						<ele>102</ele>
						<time>2021-02-17T00:42:00Z</time>
					</trkpt>
					<trkpt lat="48.439910" lon="2.685140">
						<ele>103</ele>
						<time>2021-02-17T00:44:21Z</time>
					</trkpt>
					<trkpt lat="48.439550" lon="2.686250">
						<ele>95</ele>
						<time>2021-02-17T00:46:10Z</time>
					</trkpt>
					<trkpt lat="48.439730" lon="2.687030">
						<ele>92</ele>
						<time>2021-02-17T00:47:23Z</time>
					</trkpt>
					<trkpt lat="48.439380" lon="2.687730">
						<ele>88</ele>
						<time>2021-02-17T00:48:41Z</time>
					</trkpt>
					<trkpt lat="48.438570" lon="2.688780">
						<ele>88</ele>
						<time>2021-02-17T00:51:03Z</time>
					</trkpt>
					<trkpt lat="48.438140" lon="2.690620">
						<ele>91</ele>
						<time>2021-02-17T00:53:56Z</time>
					</trkpt>
					<trkpt lat="48.438420" lon="2.690080">
						<ele>91</ele>
						<time>2021-02-17T00:54:57Z</time>
					</trkpt>
					<trkpt lat="48.438560" lon="2.689870">
						<ele>90</ele>
						<time>2021-02-17T00:55:23Z</time>
					</trkpt>
					<trkpt lat="48.438790" lon="2.689750">
						<ele>89</ele>
						<time>2021-02-17T00:55:55Z</time>
					</trkpt>
					<trkpt lat="48.439290" lon="2.689970">
						<ele>87</ele>
						<time>2021-02-17T00:57:05Z</time>
					</trkpt>
					<trkpt lat="48.439580" lon="2.690220">
						<ele>87</ele>
						<time>2021-02-17T00:57:49Z</time>
					</trkpt>
					<trkpt lat="48.439880" lon="2.691020">
						<ele>86</ele>
						<time>2021-02-17T00:59:11Z</time>
					</trkpt>
					<trkpt lat="48.439290" lon="2.691550">
						<ele>91</ele>
						<time>2021-02-17T01:00:42Z</time>
					</trkpt>
					<trkpt lat="48.439260" lon="2.691770">
						<ele>94</ele>
						<time>2021-02-17T01:01:02Z</time>
					</trkpt>
					<trkpt lat="48.439360" lon="2.692510">
						<ele>101</ele>
						<time>2021-02-17T01:02:09Z</time>
					</trkpt>
					<trkpt lat="48.439340" lon="2.692750">
						<ele>102</ele>
						<time>2021-02-17T01:02:31Z</time>
					</trkpt>
					<trkpt lat="48.439200" lon="2.692810">
						<ele>104</ele>
						<time>2021-02-17T01:02:50Z</time>
					</trkpt>
					<trkpt lat="48.439190" lon="2.693000">
						<ele>105</ele>
						<time>2021-02-17T01:03:07Z</time>
					</trkpt>
					<trkpt lat="48.439040" lon="2.693390">
						<ele>106</ele>
						<time>2021-02-17T01:03:47Z</time>
					</trkpt>
					<trkpt lat="48.438940" lon="2.693480">
						<ele>107</ele>
						<time>2021-02-17T01:04:02Z</time>
					</trkpt>
					<trkpt lat="48.438960" lon="2.693710">
						<ele>107</ele>
						<time>2021-02-17T01:04:23Z</time>
					</trkpt>
					<trkpt lat="48.438880" lon="2.693930">
						<ele>108</ele>
						<time>2021-02-17T01:04:45Z</time>
					</trkpt>
					<trkpt lat="48.438910" lon="2.694140">
						<ele>108</ele>
						<time>2021-02-17T01:05:04Z</time>
					</trkpt>
					<trkpt lat="48.438610" lon="2.694150">
						<ele>109</ele>
						<time>2021-02-17T01:05:44Z</time>
					</trkpt>
					<trkpt lat="48.438790" lon="2.694450">
						<ele>108</ele>
						<time>2021-02-17T01:06:20Z</time>
					</trkpt>
					<trkpt lat="48.438770" lon="2.694900">
						<ele>108</ele>
						<time>2021-02-17T01:07:00Z</time>
					</trkpt>
					<trkpt lat="48.438870" lon="2.694650">
						<ele>108</ele>
						<time>2021-02-17T01:07:26Z</time>
					</trkpt>
					<trkpt lat="48.438920" lon="2.694800">
						<ele>107</ele>
						<time>2021-02-17T01:07:41Z</time>
					</trkpt>
					<trkpt lat="48.438930" lon="2.695330">
						<ele>107</ele>
						<time>2021-02-17T01:08:28Z</time>
					</trkpt>
					<trkpt lat="48.438980" lon="2.695780">
						<ele>107</ele>
						<time>2021-02-17T01:09:08Z</time>
					</trkpt>
					<trkpt lat="48.438760" lon="2.695910">
						<ele>109</ele>
						<time>2021-02-17T01:09:40Z</time>
					</trkpt>
					<trkpt lat="48.438660" lon="2.696550">
						<ele>110</ele>
						<time>2021-02-17T01:10:38Z</time>
					</trkpt>
					<trkpt lat="48.438450" lon="2.697020">
						<ele>113</ele>
						<time>2021-02-17T01:11:28Z</time>
					</trkpt>
					<trkpt lat="48.438470" lon="2.697150">
						<ele>113</ele>
						<time>2021-02-17T01:11:40Z</time>
					</trkpt>
					<trkpt lat="48.438490" lon="2.697330">
						<ele>114</ele>
						<time>2021-02-17T01:11:56Z</time>
					</trkpt>
					<trkpt lat="48.438290" lon="2.697700">
						<ele>117</ele>
						<time>2021-02-17T01:12:38Z</time>
					</trkpt>
					<trkpt lat="48.438270" lon="2.697960">
						<ele>118</ele>
						<time>2021-02-17T01:13:01Z</time>
					</trkpt>
					<trkpt lat="48.438420" lon="2.698310">
						<ele>119</ele>
						<time>2021-02-17T01:13:38Z</time>
					</trkpt>
					<trkpt lat="48.438540" lon="2.698360">
						<ele>118</ele>
						<time>2021-02-17T01:13:55Z</time>
					</trkpt>
					<trkpt lat="48.438670" lon="2.698540">
						<ele>117</ele>
						<time>2021-02-17T01:14:18Z</time>
					</trkpt>
					<trkpt lat="48.438590" lon="2.699020">
						<ele>120</ele>
						<time>2021-02-17T01:15:02Z</time>
					</trkpt>
					<trkpt lat="48.438650" lon="2.699190">
						<ele>120</ele>
						<time>2021-02-17T01:15:19Z</time>
					</trkpt>
					<trkpt lat="48.438160" lon="2.699600">
						<ele>126</ele>
						<time>2021-02-17T01:16:34Z</time>
					</trkpt>
					<trkpt lat="48.438100" lon="2.699900">
						<ele>127</ele>
						<time>2021-02-17T01:17:02Z</time>
					</trkpt>
					<trkpt lat="48.437910" lon="2.700160">
						<ele>128</ele>
						<time>2021-02-17T01:17:36Z</time>
					</trkpt>
					<trkpt lat="48.437780" lon="2.700320">
						<ele>130</ele>
						<time>2021-02-17T01:17:58Z</time>
					</trkpt>
					<trkpt lat="48.437750" lon="2.700710">
						<ele>131</ele>
						<time>2021-02-17T01:18:33Z</time>
					</trkpt>
					<trkpt lat="48.437620" lon="2.701040">
						<ele>134</ele>
						<time>2021-02-17T01:19:07Z</time>
					</trkpt>
					<trkpt lat="48.437580" lon="2.701540">
						<ele>136</ele>
						<time>2021-02-17T01:19:52Z</time>
					</trkpt>
					<trkpt lat="48.437660" lon="2.701920">
						<ele>138</ele>
						<time>2021-02-17T01:20:27Z</time>
					</trkpt>
					<trkpt lat="48.437700" lon="2.702160">
						<ele>139</ele>
						<time>2021-02-17T01:20:49Z</time>
					</trkpt>
					<trkpt lat="48.437570" lon="2.702700">
						<ele>140</ele>
						<time>2021-02-17T01:21:40Z</time>
					</trkpt>
					<trkpt lat="48.437210" lon="2.703010">
						<ele>139</ele>
						<time>2021-02-17T01:22:35Z</time>
					</trkpt>
					<trkpt lat="48.437100" lon="2.702520">
						<ele>138</ele>
						<time>2021-02-17T01:23:21Z</time>
					</trkpt>
					<trkpt lat="48.436780" lon="2.702560">
						<ele>136</ele>
						<time>2021-02-17T01:24:04Z</time>
					</trkpt>
					<trkpt lat="48.436680" lon="2.703130">
						<ele>139</ele>
						<time>2021-02-17T01:24:56Z</time>
					</trkpt>
					<trkpt lat="48.436710" lon="2.703480">
						<ele>140</ele>
						<time>2021-02-17T01:25:27Z</time>
					</trkpt>
					<trkpt lat="48.436450" lon="2.704030">
						<ele>137</ele>
						<time>2021-02-17T01:26:27Z</time>
					</trkpt>
					<trkpt lat="48.436140" lon="2.704240">
						<ele>135</ele>
						<time>2021-02-17T01:27:12Z</time>
					</trkpt>
					<trkpt lat="48.435940" lon="2.704800">
						<ele>136</ele>
						<time>2021-02-17T01:28:09Z</time>
					</trkpt>
					<trkpt lat="48.435530" lon="2.705620">
						<ele>137</ele>
						<time>2021-02-17T01:29:40Z</time>
					</trkpt>
					<trkpt lat="48.434760" lon="2.710240">
						<ele>124</ele>
						<time>2021-02-17T01:36:41Z</time>
					</trkpt>
					<trkpt lat="48.434970" lon="2.710530">
						<ele>122</ele>
						<time>2021-02-17T01:37:19Z</time>
					</trkpt>
					<trkpt lat="48.435190" lon="2.710810">
						<ele>122</ele>
						<time>2021-02-17T01:37:58Z</time>
					</trkpt>
					<trkpt lat="48.435430" lon="2.710830">
						<ele>122</ele>
						<time>2021-02-17T01:38:30Z</time>
					</trkpt>
					<trkpt lat="48.435740" lon="2.710560">
						<ele>125</ele>
						<time>2021-02-17T01:39:18Z</time>
					</trkpt>
					<trkpt lat="48.435910" lon="2.710350">
						<ele>127</ele>
						<time>2021-02-17T01:39:47Z</time>
					</trkpt>
					<trkpt lat="48.436970" lon="2.708370">
						<ele>140</ele>
						<time>2021-02-17T01:43:32Z</time>
					</trkpt>
					<trkpt lat="48.437200" lon="2.708250">
						<ele>138</ele>
						<time>2021-02-17T01:44:05Z</time>
					</trkpt>
					<trkpt lat="48.437530" lon="2.708290">
						<ele>136</ele>
						<time>2021-02-17T01:44:49Z</time>
					</trkpt>
					<trkpt lat="48.437680" lon="2.708280">
						<ele>133</ele>
						<time>2021-02-17T01:45:09Z</time>
					</trkpt>
					<trkpt lat="48.437770" lon="2.708000">
						<ele>132</ele>
						<time>2021-02-17T01:45:36Z</time>
					</trkpt>
					<trkpt lat="48.437710" lon="2.707730">
						<ele>133</ele>
						<time>2021-02-17T01:46:02Z</time>
					</trkpt>
					<trkpt lat="48.437560" lon="2.707580">
						<ele>135</ele>
						<time>2021-02-17T01:46:26Z</time>
					</trkpt>
					<trkpt lat="48.437390" lon="2.707490">
						<ele>137</ele>
						<time>2021-02-17T01:46:50Z</time>
					</trkpt>
					<trkpt lat="48.436910" lon="2.707110">
						<ele>140</ele>
						<time>2021-02-17T01:48:02Z</time>
					</trkpt>
					<trkpt lat="48.436890" lon="2.706860">
						<ele>140</ele>
						<time>2021-02-17T01:48:24Z</time>
					</trkpt>
					<trkpt lat="48.436740" lon="2.706100">
						<ele>143</ele>
						<time>2021-02-17T01:49:35Z</time>
					</trkpt>
					<trkpt lat="48.436820" lon="2.705850">
						<ele>143</ele>
						<time>2021-02-17T01:49:59Z</time>
					</trkpt>
					<trkpt lat="48.437030" lon="2.705750">
						<ele>142</ele>
						<time>2021-02-17T01:50:28Z</time>
					</trkpt>
					<trkpt lat="48.437220" lon="2.705760">
						<ele>141</ele>
						<time>2021-02-17T01:50:54Z</time>
					</trkpt>
					<trkpt lat="48.437150" lon="2.705990">
						<ele>141</ele>
						<time>2021-02-17T01:51:16Z</time>
					</trkpt>
					<trkpt lat="48.437210" lon="2.706220">
						<ele>140</ele>
						<time>2021-02-17T01:51:38Z</time>
					</trkpt>
					<trkpt lat="48.437360" lon="2.706290">
						<ele>138</ele>
						<time>2021-02-17T01:51:59Z</time>
					</trkpt>
					<trkpt lat="48.437550" lon="2.706550">
						<ele>136</ele>
						<time>2021-02-17T01:52:33Z</time>
					</trkpt>
					<trkpt lat="48.437950" lon="2.706790">
						<ele>128</ele>
						<time>2021-02-17T01:53:31Z</time>
					</trkpt>
					<trkpt lat="48.438220" lon="2.706850">
						<ele>123</ele>
						<time>2021-02-17T01:54:07Z</time>
					</trkpt>
					<trkpt lat="48.438370" lon="2.706920">
						<ele>121</ele>
						<time>2021-02-17T01:54:28Z</time>
					</trkpt>
					<trkpt lat="48.438750" lon="2.707000">
						<ele>118</ele>
						<time>2021-02-17T01:55:19Z</time>
					</trkpt>
					<trkpt lat="48.438880" lon="2.707150">
						<ele>118</ele>
						<time>2021-02-17T01:55:41Z</time>
					</trkpt>
					<trkpt lat="48.439000" lon="2.706930">
						<ele>116</ele>
						<time>2021-02-17T01:56:06Z</time>
					</trkpt>
					<trkpt lat="48.439640" lon="2.706840">
						<ele>114</ele>
						<time>2021-02-17T01:57:32Z</time>
					</trkpt>
					<trkpt lat="48.439900" lon="2.707120">
						<ele>114</ele>
						<time>2021-02-17T01:58:15Z</time>
					</trkpt>
					<trkpt lat="48.440170" lon="2.707480">
						<ele>111</ele>
						<time>2021-02-17T01:59:03Z</time>
					</trkpt>
					<trkpt lat="48.440670" lon="2.707830">
						<ele>106</ele>
						<time>2021-02-17T02:00:17Z</time>
					</trkpt>
					<trkpt lat="48.440770" lon="2.708270">
						<ele>104</ele>
						<time>2021-02-17T02:00:58Z</time>
					</trkpt>
					<trkpt lat="48.441360" lon="2.709000">
						<ele>93</ele>
						<time>2021-02-17T02:02:40Z</time>
					</trkpt>
					<trkpt lat="48.442770" lon="2.700860">
						<ele>97</ele>
						<time>2021-02-17T02:15:04Z</time>
					</trkpt>
					<trkpt lat="48.443520" lon="2.699580">
						<ele>95</ele>
						<time>2021-02-17T02:17:35Z</time>
					</trkpt>
					<trkpt lat="48.443450" lon="2.699070">
						<ele>96</ele>
						<time>2021-02-17T02:18:22Z</time>
					</trkpt>
					<trkpt lat="48.443110" lon="2.698880">
						<ele>97</ele>
						<time>2021-02-17T02:19:10Z</time>
					</trkpt>
					<trkpt lat="48.442920" lon="2.698470">
						<ele>98</ele>
						<time>2021-02-17T02:19:54Z</time>
					</trkpt>
					<trkpt lat="48.442920" lon="2.697940">
						<ele>99</ele>
						<time>2021-02-17T02:20:41Z</time>
					</trkpt>
					<trkpt lat="48.443140" lon="2.697380">
						<ele>100</ele>
						<time>2021-02-17T02:21:39Z</time>
					</trkpt>
					<trkpt lat="48.443510" lon="2.697300">
						<ele>98</ele>
						<time>2021-02-17T02:22:29Z</time>
					</trkpt>
					<trkpt lat="48.443630" lon="2.697100">
						<ele>97</ele>
						<time>2021-02-17T02:22:53Z</time>
					</trkpt>
					<trkpt lat="48.443480" lon="2.696690">
						<ele>96</ele>
						<time>2021-02-17T02:23:34Z</time>
					</trkpt>
					<trkpt lat="48.443150" lon="2.696270">
						<ele>96</ele>
						<time>2021-02-17T02:24:32Z</time>
					</trkpt>
					<trkpt lat="48.442930" lon="2.695600">
						<ele>95</ele>
						<time>2021-02-17T02:25:38Z</time>
					</trkpt>
					<trkpt lat="48.443130" lon="2.694800">
						<ele>94</ele>
						<time>2021-02-17T02:26:53Z</time>
					</trkpt>
					<trkpt lat="48.443600" lon="2.694640">
						<ele>95</ele>
						<time>2021-02-17T02:27:58Z</time>
					</trkpt>
					<trkpt lat="48.443730" lon="2.694420">
						<ele>97</ele>
						<time>2021-02-17T02:28:24Z</time>
					</trkpt>
					<trkpt lat="48.443870" lon="2.694310">
						<ele>98</ele>
						<time>2021-02-17T02:28:45Z</time>
					</trkpt>
					<trkpt lat="48.444390" lon="2.694780">
						<ele>98</ele>
						<time>2021-02-17T02:30:06Z</time>
					</trkpt>
					<trkpt lat="48.444820" lon="2.694820">
						<ele>99</ele>
						<time>2021-02-17T02:31:03Z</time>
					</trkpt>
					<trkpt lat="48.445190" lon="2.694280">
						<ele>98</ele>
						<time>2021-02-17T02:32:12Z</time>
					</trkpt>
					<trkpt lat="48.445420" lon="2.694090">
						<ele>97</ele>
						<time>2021-02-17T02:32:47Z</time>
					</trkpt>
					<trkpt lat="48.445680" lon="2.693470">
						<ele>96</ele>
						<time>2021-02-17T02:33:52Z</time>
					</trkpt>
					<trkpt lat="48.446200" lon="2.693280">
						<ele>97</ele>
						<time>2021-02-17T02:35:03Z</time>
					</trkpt>
					<trkpt lat="48.446650" lon="2.693770">
						<ele>98</ele>
						<time>2021-02-17T02:36:17Z</time>
					</trkpt>
					<trkpt lat="48.447050" lon="2.693870">
						<ele>96</ele>
						<time>2021-02-17T02:37:12Z</time>
					</trkpt>
					<trkpt lat="48.447510" lon="2.693610">
						<ele>95</ele>
						<time>2021-02-17T02:38:17Z</time>
					</trkpt>
					<trkpt lat="48.447870" lon="2.693760">
						<ele>92</ele>
						<time>2021-02-17T02:39:07Z</time>
					</trkpt>
					<trkpt lat="48.449040" lon="2.693410">
						<ele>86</ele>
						<time>2021-02-17T02:41:46Z</time>
					</trkpt>
					<trkpt lat="48.449530" lon="2.692770">
						<ele>89</ele>
						<time>2021-02-17T02:43:13Z</time>
					</trkpt>
					<trkpt lat="48.450070" lon="2.691790">
						<ele>97</ele>
						<time>2021-02-17T02:45:05Z</time>
					</trkpt>
					<trkpt lat="48.450280" lon="2.691840">
						<ele>97</ele>
						<time>2021-02-17T02:45:34Z</time>
					</trkpt>
					<trkpt lat="48.450490" lon="2.691560">
						<ele>99</ele>
						<time>2021-02-17T02:46:11Z</time>
					</trkpt>
					<trkpt lat="48.450990" lon="2.691370">
						<ele>100</ele>
						<time>2021-02-17T02:47:20Z</time>
					</trkpt>
					<trkpt lat="48.451110" lon="2.691210">
						<ele>101</ele>
						<time>2021-02-17T02:47:41Z</time>
					</trkpt>
					<trkpt lat="48.451080" lon="2.690670">
						<ele>101</ele>
						<time>2021-02-17T02:48:29Z</time>
					</trkpt>
					<trkpt lat="48.452110" lon="2.689140">
						<ele>109</ele>
						<time>2021-02-17T02:51:42Z</time>
					</trkpt>
					<trkpt lat="48.452070" lon="2.688820">
						<ele>110</ele>
						<time>2021-02-17T02:52:11Z</time>
					</trkpt>
					<trkpt lat="48.452100" lon="2.688400">
						<ele>112</ele>
						<time>2021-02-17T02:52:49Z</time>
					</trkpt>
					<trkpt lat="48.452010" lon="2.688130">
						<ele>112</ele>
						<time>2021-02-17T02:53:15Z</time>
					</trkpt>
					<trkpt lat="48.452140" lon="2.688520">
						<ele>111</ele>
						<time>2021-02-17T02:53:54Z</time>
					</trkpt>
					<trkpt lat="48.452020" lon="2.689020">
						<ele>109</ele>
						<time>2021-02-17T02:54:41Z</time>
					</trkpt>
					<trkpt lat="48.452220" lon="2.689050">
						<ele>109</ele>
						<time>2021-02-17T02:55:08Z</time>
					</trkpt>
					<trkpt lat="48.452650" lon="2.689240">
						<ele>106</ele>
						<time>2021-02-17T02:56:08Z</time>
					</trkpt>
					<trkpt lat="48.452960" lon="2.689630">
						<ele>103</ele>
						<time>2021-02-17T02:57:01Z</time>
					</trkpt>
					<trkpt lat="48.453110" lon="2.690040">
						<ele>101</ele>
						<time>2021-02-17T02:57:43Z</time>
					</trkpt>
					<trkpt lat="48.454050" lon="2.690460">
						<ele>102</ele>
						<time>2021-02-17T02:59:54Z</time>
					</trkpt>
					<trkpt lat="48.454580" lon="2.694250">
						<ele>94</ele>
						<time>2021-02-17T03:05:37Z</time>
					</trkpt>
					<trkpt lat="48.445850" lon="2.708550">
						<ele>90</ele>
						<time>2021-02-17T03:34:17Z</time>
					</trkpt>
					<trkpt lat="48.444750" lon="2.716960">
						<ele>94</ele>
						<time>2021-02-17T03:46:56Z</time>
					</trkpt>
					<trkpt lat="48.444170" lon="2.717970">
						<ele>93</ele>
						<time>2021-02-17T03:48:54Z</time>
					</trkpt>
					<trkpt lat="48.444060" lon="2.719220">
						<ele>95</ele>
						<time>2021-02-17T03:50:45Z</time>
					</trkpt>
					<trkpt lat="48.446020" lon="2.725830">
						<ele>93</ele>
						<time>2021-02-17T04:01:26Z</time>
					</trkpt>
					<trkpt lat="48.449970" lon="2.729170">
						<ele>99</ele>
						<time>2021-02-17T04:11:31Z</time>
					</trkpt>
					<trkpt lat="48.450240" lon="2.733120">
						<ele>101</ele>
						<time>2021-02-17T04:17:22Z</time>
					</trkpt>
					<trkpt lat="48.450510" lon="2.733780">
						<ele>102</ele>
						<time>2021-02-17T04:18:31Z</time>
					</trkpt>
					<trkpt lat="48.450460" lon="2.734930">
						<ele>100</ele>
						<time>2021-02-17T04:20:13Z</time>
					</trkpt>
					<trkpt lat="48.450370" lon="2.734930">
						<ele>100</ele>
						<time>2021-02-17T04:20:25Z</time>
					</trkpt>
					<trkpt lat="48.450780" lon="2.735430">
						<ele>100</ele>
						<time>2021-02-17T04:21:35Z</time>
					</trkpt>
					<trkpt lat="48.451210" lon="2.734950">
						<ele>102</ele>
						<time>2021-02-17T04:22:47Z</time>
					</trkpt>
					<trkpt lat="48.451930" lon="2.735830">
						<ele>103</ele>
						<time>2021-02-17T04:24:50Z</time>
					</trkpt>
					<trkpt lat="48.452110" lon="2.736810">
						<ele>102</ele>
						<time>2021-02-17T04:26:20Z</time>
					</trkpt>
					<trkpt lat="48.452370" lon="2.737910">
						<ele>101</ele>
						<time>2021-02-17T04:28:04Z</time>
					</trkpt>
					<trkpt lat="48.452240" lon="2.739280">
						<ele>104</ele>
						<time>2021-02-17T04:30:06Z</time>
					</trkpt>
					<trkpt lat="48.452240" lon="2.739220">
						<ele>104</ele>
						<time>2021-02-17T04:30:11Z</time>
					</trkpt>
					<trkpt lat="48.452620" lon="2.740620">
						<ele>106</ele>
						<time>2021-02-17T04:32:25Z</time>
					</trkpt>
					<trkpt lat="48.452200" lon="2.740960">
						<ele>107</ele>
						<time>2021-02-17T04:33:29Z</time>
					</trkpt>
					<trkpt lat="48.451700" lon="2.741370">
						<ele>110</ele>
						<time>2021-02-17T04:34:45Z</time>
					</trkpt>
					<trkpt lat="48.452500" lon="2.742120">
						<ele>107</ele>
						<time>2021-02-17T04:36:51Z</time>
					</trkpt>
					<trkpt lat="48.452540" lon="2.742980">
						<ele>104</ele>
						<time>2021-02-17T04:38:07Z</time>
					</trkpt>
					<trkpt lat="48.452800" lon="2.743500">
						<ele>101</ele>
						<time>2021-02-17T04:39:05Z</time>
					</trkpt>
					</trkseg>
				</trk>
			</gpx>